Terminal Aerodrome Forecast
Issued by NWS Jackson, KY

Home | Current Version | Previous Version | Text Only | Print | Product List | Glossary On
Versions: 1 2 3 4 5 6 7 8 9 10 11 12 13
000
FTUS43 KJKL 230500
TAFJKL
TAF
KJKL 230525Z 2306/2406 VRB03KT P6SM OVC020
     FM231300 VRB03KT P6SM SCT030 BKN040
     FM231600 VRB03KT P6SM FEW050=

USA.gov is the U.S. government's official web portal to all federal, state and local government web resources and services.